sensor_id;sensor_type;location;lat;lon;timestamp;temperature;humidity
48836;DHT22;62581;47.342;7.908;2023-05-29T00:01:53;16.50;95.10
48836;DHT22;62581;47.342;7.908;2023-05-29T00:04:20;16.40;95.10
48836;DHT22;62581;47.342;7.908;2023-05-29T00:06:48;16.40;95.60
48836;DHT22;62581;47.342;7.908;2023-05-29T00:09:17;16.40;96.50
48836;DHT22;62581;47.342;7.908;2023-05-29T00:11:44;16.40;96.50
48836;DHT22;62581;47.342;7.908;2023-05-29T00:14:16;16.20;96.40
48836;DHT22;62581;47.342;7.908;2023-05-29T00:16:44;16.20;96.80
48836;DHT22;62581;47.342;7.908;2023-05-29T00:19:12;16.10;96.70
48836;DHT22;62581;47.342;7.908;2023-05-29T00:21:42;16.00;95.80
48836;DHT22;62581;47.342;7.908;2023-05-29T00:24:19;16.10;96.50
48836;DHT22;62581;47.342;7.908;2023-05-29T00:26:51;16.10;97.30
48836;DHT22;62581;47.342;7.908;2023-05-29T00:29:18;16.00;97.00
48836;DHT22;62581;47.342;7.908;2023-05-29T00:31:46;16.00;97.20
48836;DHT22;62581;47.342;7.908;2023-05-29T00:34:13;15.90;96.80
48836;DHT22;62581;47.342;7.908;2023-05-29T00:36:40;15.90;97.00
48836;DHT22;62581;47.342;7.908;2023-05-29T00:39:12;15.90;97.00
48836;DHT22;62581;47.342;7.908;2023-05-29T00:41:40;15.80;97.00
48836;DHT22;62581;47.342;7.908;2023-05-29T00:44:12;15.80;96.60
48836;DHT22;62581;47.342;7.908;2023-05-29T00:46:43;15.70;96.50
48836;DHT22;62581;47.342;7.908;2023-05-29T00:49:15;15.70;96.60
48836;DHT22;62581;47.342;7.908;2023-05-29T00:51:46;15.70;96.60
48836;DHT22;62581;47.342;7.908;2023-05-29T00:54:16;15.70;96.30
48836;DHT22;62581;47.342;7.908;2023-05-29T00:56:45;15.70;96.30
48836;DHT22;62581;47.342;7.908;2023-05-29T00:59:19;15.60;96.50
48836;DHT22;62581;47.342;7.908;2023-05-29T01:01:47;15.60;96.60
48836;DHT22;62581;47.342;7.908;2023-05-29T01:04:15;15.50;96.80
48836;DHT22;62581;47.342;7.908;2023-05-29T01:06:49;15.50;96.80
48836;DHT22;62581;47.342;7.908;2023-05-29T01:09:17;15.50;96.60
48836;DHT22;62581;47.342;7.908;2023-05-29T01:11:57;15.50;96.60
48836;DHT22;62581;47.342;7.908;2023-05-29T01:14:33;15.40;96.20
48836;DHT22;62581;47.342;7.908;2023-05-29T01:17:06;15.40;96.30
48836;DHT22;62581;47.342;7.908;2023-05-29T01:19:53;15.40;96.90
48836;DHT22;62581;47.342;7.908;2023-05-29T01:22:40;15.40;97.20
48836;DHT22;62581;47.342;7.908;2023-05-29T01:25:15;15.40;97.30
48836;DHT22;62581;47.342;7.908;2023-05-29T01:27:46;15.30;97.40
48836;DHT22;62581;47.342;7.908;2023-05-29T01:30:15;15.30;97.20
48836;DHT22;62581;47.342;7.908;2023-05-29T01:32:42;15.20;96.80
48836;DHT22;62581;47.342;7.908;2023-05-29T01:35:11;15.10;96.80
48836;DHT22;62581;47.342;7.908;2023-05-29T01:37:38;15.10;96.80
48836;DHT22;62581;47.342;7.908;2023-05-29T01:40:09;15.10;96.60
48836;DHT22;62581;47.342;7.908;2023-05-29T01:42:36;15.00;96.80
48836;DHT22;62581;47.342;7.908;2023-05-29T01:45:05;15.00;97.10
48836;DHT22;62581;47.342;7.908;2023-05-29T01:47:33;15.00;97.50
48836;DHT22;62581;47.342;7.908;2023-05-29T01:50:00;14.90;97.60
48836;DHT22;62581;47.342;7.908;2023-05-29T01:52:31;14.90;97.80
48836;DHT22;62581;47.342;7.908;2023-05-29T01:54:58;14.90;98.10
48836;DHT22;62581;47.342;7.908;2023-05-29T01:57:26;14.90;98.10
48836;DHT22;62581;47.342;7.908;2023-05-29T01:59:56;14.90;98.20
48836;DHT22;62581;47.342;7.908;2023-05-29T02:02:26;14.90;98.40
48836;DHT22;62581;47.342;7.908;2023-05-29T02:04:53;14.80;98.60
48836;DHT22;62581;47.342;7.908;2023-05-29T02:07:21;14.70;98.60
48836;DHT22;62581;47.342;7.908;2023-05-29T02:09:53;14.70;98.80
48836;DHT22;62581;47.342;7.908;2023-05-29T02:12:20;14.70;99.20
48836;DHT22;62581;47.342;7.908;2023-05-29T02:14:48;14.60;99.50
48836;DHT22;62581;47.342;7.908;2023-05-29T02:17:17;14.50;99.60
48836;DHT22;62581;47.342;7.908;2023-05-29T02:19:51;14.50;99.90
48836;DHT22;62581;47.342;7.908;2023-05-29T02:22:18;14.50;99.90
48836;DHT22;62581;47.342;7.908;2023-05-29T02:24:50;14.50;99.90
48836;DHT22;62581;47.342;7.908;2023-05-29T02:27:17;14.50;99.90
48836;DHT22;62581;47.342;7.908;2023-05-29T02:29:48;14.50;99.90
48836;DHT22;62581;47.342;7.908;2023-05-29T02:32:16;14.50;99.90
48836;DHT22;62581;47.342;7.908;2023-05-29T02:34:43;14.50;99.90
48836;DHT22;62581;47.342;7.908;2023-05-29T02:37:12;14.50;99.90
48836;DHT22;62581;47.342;7.908;2023-05-29T02:39:48;14.40;99.90
48836;DHT22;62581;47.342;7.908;2023-05-29T02:42:15;14.40;99.90
48836;DHT22;62581;47.342;7.908;2023-05-29T02:44:57;14.40;99.90
48836;DHT22;62581;47.342;7.908;2023-05-29T02:47:27;14.30;99.90
48836;DHT22;62581;47.342;7.908;2023-05-29T02:49:58;14.30;99.90
48836;DHT22;62581;47.342;7.908;2023-05-29T02:52:34;14.20;99.90
48836;DHT22;62581;47.342;7.908;2023-05-29T02:55:10;14.20;99.90
48836;DHT22;62581;47.342;7.908;2023-05-29T02:57:37;14.20;99.90
48836;DHT22;62581;47.342;7.908;2023-05-29T03:00:05;14.10;99.90
48836;DHT22;62581;47.342;7.908;2023-05-29T03:02:35;14.10;99.90
48836;DHT22;62581;47.342;7.908;2023-05-29T03:05:06;14.00;99.90
48836;DHT22;62581;47.342;7.908;2023-05-29T03:07:40;14.10;99.90
48836;DHT22;62581;47.342;7.908;2023-05-29T03:10:08;14.00;99.90
48836;DHT22;62581;47.342;7.908;2023-05-29T03:12:35;14.00;99.90
48836;DHT22;62581;47.342;7.908;2023-05-29T03:15:11;13.90;99.90
48836;DHT22;62581;47.342;7.908;2023-05-29T03:17:38;13.80;99.90
48836;DHT22;62581;47.342;7.908;2023-05-29T03:20:06;13.80;99.90
48836;DHT22;62581;47.342;7.908;2023-05-29T03:22:34;13.80;99.90
48836;DHT22;62581;47.342;7.908;2023-05-29T03:25:03;13.70;99.90
48836;DHT22;62581;47.342;7.908;2023-05-29T03:27:34;13.70;99.90
48836;DHT22;62581;47.342;7.908;2023-05-29T03:30:01;13.70;99.90
48836;DHT22;62581;47.342;7.908;2023-05-29T03:32:28;13.70;99.90
48836;DHT22;62581;47.342;7.908;2023-05-29T03:35:04;13.60;99.90
48836;DHT22;62581;47.342;7.908;2023-05-29T03:37:33;13.60;99.90
48836;DHT22;62581;47.342;7.908;2023-05-29T03:40:02;13.60;99.90
48836;DHT22;62581;47.342;7.908;2023-05-29T03:42:31;13.60;99.90
48836;DHT22;62581;47.342;7.908;2023-05-29T03:45:04;13.60;99.90
48836;DHT22;62581;47.342;7.908;2023-05-29T03:47:35;13.60;99.90
48836;DHT22;62581;47.342;7.908;2023-05-29T03:50:07;13.60;99.90
48836;DHT22;62581;47.342;7.908;2023-05-29T03:52:40;13.60;99.90
48836;DHT22;62581;47.342;7.908;2023-05-29T03:55:09;13.60;99.90
48836;DHT22;62581;47.342;7.908;2023-05-29T03:57:41;13.60;99.90
48836;DHT22;62581;47.342;7.908;2023-05-29T04:00:12;13.60;99.90
48836;DHT22;62581;47.342;7.908;2023-05-29T04:02:55;13.60;99.90
48836;DHT22;62581;47.342;7.908;2023-05-29T04:05:24;13.60;99.90
48836;DHT22;62581;47.342;7.908;2023-05-29T04:07:52;13.50;99.90
48836;DHT22;62581;47.342;7.908;2023-05-29T04:10:26;13.60;99.90
48836;DHT22;62581;47.342;7.908;2023-05-29T04:12:54;13.60;99.90
48836;DHT22;62581;47.342;7.908;2023-05-29T04:15:27;13.60;99.90
48836;DHT22;62581;47.342;7.908;2023-05-29T04:17:55;13.60;99.90
48836;DHT22;62581;47.342;7.908;2023-05-29T04:20:22;13.60;99.90
48836;DHT22;62581;47.342;7.908;2023-05-29T04:22:55;13.60;99.90
48836;DHT22;62581;47.342;7.908;2023-05-29T04:25:22;13.60;99.90
48836;DHT22;62581;47.342;7.908;2023-05-29T04:27:55;13.60;99.90
48836;DHT22;62581;47.342;7.908;2023-05-29T04:30:22;13.70;99.90
48836;DHT22;62581;47.342;7.908;2023-05-29T04:32:57;13.70;99.90
48836;DHT22;62581;47.342;7.908;2023-05-29T04:35:24;13.60;99.90
48836;DHT22;62581;47.342;7.908;2023-05-29T04:37:53;13.60;99.90
48836;DHT22;62581;47.342;7.908;2023-05-29T04:40:22;13.70;99.90
48836;DHT22;62581;47.342;7.908;2023-05-29T04:43:02;13.70;99.90
48836;DHT22;62581;47.342;7.908;2023-05-29T04:45:36;13.70;99.90
48836;DHT22;62581;47.342;7.908;2023-05-29T04:48:03;13.80;99.90
48836;DHT22;62581;47.342;7.908;2023-05-29T04:50:30;13.80;99.90
48836;DHT22;62581;47.342;7.908;2023-05-29T04:53:03;13.90;99.90
48836;DHT22;62581;47.342;7.908;2023-05-29T04:55:32;14.00;99.90
48836;DHT22;62581;47.342;7.908;2023-05-29T04:58:01;14.00;99.90
48836;DHT22;62581;47.342;7.908;2023-05-29T05:00:28;14.10;99.90
48836;DHT22;62581;47.342;7.908;2023-05-29T05:02:56;14.10;99.90
48836;DHT22;62581;47.342;7.908;2023-05-29T05:05:23;14.20;99.90
48836;DHT22;62581;47.342;7.908;2023-05-29T05:07:55;14.20;99.90
48836;DHT22;62581;47.342;7.908;2023-05-29T05:10:24;14.30;99.90
48836;DHT22;62581;47.342;7.908;2023-05-29T05:12:56;14.40;99.90
48836;DHT22;62581;47.342;7.908;2023-05-29T05:15:25;14.40;99.90
48836;DHT22;62581;47.342;7.908;2023-05-29T05:18:10;14.50;99.90
48836;DHT22;62581;47.342;7.908;2023-05-29T05:20:37;14.60;99.90
48836;DHT22;62581;47.342;7.908;2023-05-29T05:23:04;14.70;99.90
48836;DHT22;62581;47.342;7.908;2023-05-29T05:25:33;14.80;99.90
48836;DHT22;62581;47.342;7.908;2023-05-29T05:28:00;14.90;99.90
48836;DHT22;62581;47.342;7.908;2023-05-29T05:30:29;15.00;99.90
48836;DHT22;62581;47.342;7.908;2023-05-29T05:33:00;15.10;99.90
48836;DHT22;62581;47.342;7.908;2023-05-29T05:35:29;15.20;99.90
48836;DHT22;62581;47.342;7.908;2023-05-29T05:37:59;15.20;99.90
48836;DHT22;62581;47.342;7.908;2023-05-29T05:40:30;15.30;99.90
48836;DHT22;62581;47.342;7.908;2023-05-29T05:42:59;15.40;99.90
48836;DHT22;62581;47.342;7.908;2023-05-29T05:45:26;15.40;99.90
48836;DHT22;62581;47.342;7.908;2023-05-29T05:48:10;15.50;99.90
48836;DHT22;62581;47.342;7.908;2023-05-29T05:50:39;15.60;99.90
48836;DHT22;62581;47.342;7.908;2023-05-29T05:53:06;15.70;99.90
48836;DHT22;62581;47.342;7.908;2023-05-29T05:55:44;15.80;99.90
48836;DHT22;62581;47.342;7.908;2023-05-29T05:58:14;15.90;99.90
48836;DHT22;62581;47.342;7.908;2023-05-29T06:00:41;16.00;99.90
48836;DHT22;62581;47.342;7.908;2023-05-29T06:03:11;16.10;99.90
48836;DHT22;62581;47.342;7.908;2023-05-29T06:05:44;16.20;99.90
48836;DHT22;62581;47.342;7.908;2023-05-29T06:08:21;16.30;99.90
48836;DHT22;62581;47.342;7.908;2023-05-29T06:10:54;16.30;99.90
48836;DHT22;62581;47.342;7.908;2023-05-29T06:13:25;16.50;99.90
48836;DHT22;62581;47.342;7.908;2023-05-29T06:15:51;16.60;99.90
48836;DHT22;62581;47.342;7.908;2023-05-29T06:18:22;16.60;99.90
48836;DHT22;62581;47.342;7.908;2023-05-29T06:21:09;16.70;99.90
48836;DHT22;62581;47.342;7.908;2023-05-29T06:23:36;16.70;99.90
48836;DHT22;62581;47.342;7.908;2023-05-29T06:26:15;16.90;99.90
48836;DHT22;62581;47.342;7.908;2023-05-29T06:28:49;17.00;99.90
48836;DHT22;62581;47.342;7.908;2023-05-29T06:31:16;17.00;99.90
48836;DHT22;62581;47.342;7.908;2023-05-29T06:33:52;17.20;99.90
48836;DHT22;62581;47.342;7.908;2023-05-29T06:36:20;17.20;99.90
48836;DHT22;62581;47.342;7.908;2023-05-29T06:38:47;17.30;99.90
48836;DHT22;62581;47.342;7.908;2023-05-29T06:41:16;17.40;99.90
48836;DHT22;62581;47.342;7.908;2023-05-29T06:43:53;17.50;99.90
48836;DHT22;62581;47.342;7.908;2023-05-29T06:46:23;17.60;99.90
48836;DHT22;62581;47.342;7.908;2023-05-29T06:49:14;17.70;99.90
48836;DHT22;62581;47.342;7.908;2023-05-29T06:51:45;17.80;99.90
48836;DHT22;62581;47.342;7.908;2023-05-29T06:54:18;17.80;98.80
48836;DHT22;62581;47.342;7.908;2023-05-29T06:56:45;17.90;98.80
48836;DHT22;62581;47.342;7.908;2023-05-29T06:59:25;18.00;99.00
48836;DHT22;62581;47.342;7.908;2023-05-29T07:01:53;18.10;99.10
48836;DHT22;62581;47.342;7.908;2023-05-29T07:04:21;18.20;98.50
48836;DHT22;62581;47.342;7.908;2023-05-29T07:06:50;18.20;98.20
48836;DHT22;62581;47.342;7.908;2023-05-29T07:09:26;18.30;98.10
48836;DHT22;62581;47.342;7.908;2023-05-29T07:11:53;18.30;98.10
48836;DHT22;62581;47.342;7.908;2023-05-29T07:14:32;18.40;97.40
48836;DHT22;62581;47.342;7.908;2023-05-29T07:17:04;18.50;97.20
48836;DHT22;62581;47.342;7.908;2023-05-29T07:19:34;18.50;97.30
48836;DHT22;62581;47.342;7.908;2023-05-29T07:22:04;18.60;97.10
48836;DHT22;62581;47.342;7.908;2023-05-29T07:24:45;18.70;97.00
48836;DHT22;62581;47.342;7.908;2023-05-29T07:27:14;18.80;96.80
48836;DHT22;62581;47.342;7.908;2023-05-29T07:29:46;18.80;96.60
48836;DHT22;62581;47.342;7.908;2023-05-29T07:32:17;18.90;96.40
48836;DHT22;62581;47.342;7.908;2023-05-29T07:34:49;18.90;96.30
48836;DHT22;62581;47.342;7.908;2023-05-29T07:37:32;19.00;95.70
48836;DHT22;62581;47.342;7.908;2023-05-29T07:40:19;19.10;95.30
48836;DHT22;62581;47.342;7.908;2023-05-29T07:42:53;19.10;95.00
48836;DHT22;62581;47.342;7.908;2023-05-29T07:45:24;19.10;95.10
48836;DHT22;62581;47.342;7.908;2023-05-29T07:48:00;19.20;95.10
48836;DHT22;62581;47.342;7.908;2023-05-29T07:50:43;19.30;94.90
48836;DHT22;62581;47.342;7.908;2023-05-29T07:55:50;19.40;94.60
48836;DHT22;62581;47.342;7.908;2023-05-29T07:58:18;19.50;94.60
48836;DHT22;62581;47.342;7.908;2023-05-29T08:01:02;19.50;94.60
48836;DHT22;62581;47.342;7.908;2023-05-29T08:03:32;19.60;94.30
48836;DHT22;62581;47.342;7.908;2023-05-29T08:06:05;19.70;94.00
48836;DHT22;62581;47.342;7.908;2023-05-29T08:08:44;19.70;93.80
48836;DHT22;62581;47.342;7.908;2023-05-29T08:11:11;19.80;94.60
48836;DHT22;62581;47.342;7.908;2023-05-29T08:13:55;19.90;93.60
48836;DHT22;62581;47.342;7.908;2023-05-29T08:16:22;19.90;93.50
48836;DHT22;62581;47.342;7.908;2023-05-29T08:19:09;20.00;94.10
48836;DHT22;62581;47.342;7.908;2023-05-29T08:21:56;20.10;93.90
48836;DHT22;62581;47.342;7.908;2023-05-29T08:24:30;20.10;93.50
48836;DHT22;62581;47.342;7.908;2023-05-29T08:26:56;20.10;93.40
48836;DHT22;62581;47.342;7.908;2023-05-29T08:29:25;20.20;93.80
48836;DHT22;62581;47.342;7.908;2023-05-29T08:31:55;20.20;93.10
48836;DHT22;62581;47.342;7.908;2023-05-29T08:34:26;20.30;93.10
48836;DHT22;62581;47.342;7.908;2023-05-29T08:37:00;20.30;93.30
48836;DHT22;62581;47.342;7.908;2023-05-29T08:39:31;20.40;93.20
48836;DHT22;62581;47.342;7.908;2023-05-29T08:42:10;20.50;92.80
48836;DHT22;62581;47.342;7.908;2023-05-29T08:44:40;20.60;92.50
48836;DHT22;62581;47.342;7.908;2023-05-29T08:49:55;20.80;91.90
48836;DHT22;62581;47.342;7.908;2023-05-29T08:52:43;20.90;92.50
48836;DHT22;62581;47.342;7.908;2023-05-29T08:55:11;21.00;91.70
48836;DHT22;62581;47.342;7.908;2023-05-29T08:57:56;21.10;91.90
48836;DHT22;62581;47.342;7.908;2023-05-29T09:00:24;21.10;91.80
48836;DHT22;62581;47.342;7.908;2023-05-29T09:03:05;21.10;91.60
48836;DHT22;62581;47.342;7.908;2023-05-29T09:05:41;21.20;92.00
48836;DHT22;62581;47.342;7.908;2023-05-29T09:08:15;21.30;91.70
48836;DHT22;62581;47.342;7.908;2023-05-29T09:10:44;21.30;95.20
48836;DHT22;62581;47.342;7.908;2023-05-29T09:13:16;21.40;92.10
48836;DHT22;62581;47.342;7.908;2023-05-29T09:15:59;21.60;92.80
48836;DHT22;62581;47.342;7.908;2023-05-29T09:18:36;21.60;91.90
48836;DHT22;62581;47.342;7.908;2023-05-29T09:21:06;21.70;91.40
48836;DHT22;62581;47.342;7.908;2023-05-29T09:23:36;21.70;92.00
48836;DHT22;62581;47.342;7.908;2023-05-29T09:26:03;21.90;92.30
48836;DHT22;62581;47.342;7.908;2023-05-29T09:28:39;21.90;92.30
48836;DHT22;62581;47.342;7.908;2023-05-29T09:31:16;22.00;91.70
48836;DHT22;62581;47.342;7.908;2023-05-29T09:34:06;22.00;91.90
48836;DHT22;62581;47.342;7.908;2023-05-29T09:36:44;22.00;91.40
48836;DHT22;62581;47.342;7.908;2023-05-29T09:39:31;22.10;90.70
48836;DHT22;62581;47.342;7.908;2023-05-29T09:42:04;22.30;91.50
48836;DHT22;62581;47.342;7.908;2023-05-29T09:45:14;22.30;90.90
48836;DHT22;62581;47.342;7.908;2023-05-29T09:47:25;22.40;90.40
48836;DHT22;62581;47.342;7.908;2023-05-29T09:49:52;22.50;90.10
48836;DHT22;62581;47.342;7.908;2023-05-29T09:52:28;22.40;90.80
48836;DHT22;62581;47.342;7.908;2023-05-29T09:55:07;22.50;90.50
48836;DHT22;62581;47.342;7.908;2023-05-29T09:57:36;22.70;90.40
48836;DHT22;62581;47.342;7.908;2023-05-29T10:00:08;22.80;90.80
48836;DHT22;62581;47.342;7.908;2023-05-29T10:02:50;22.90;90.10
48836;DHT22;62581;47.342;7.908;2023-05-29T10:05:24;22.90;90.30
48836;DHT22;62581;47.342;7.908;2023-05-29T10:07:54;23.00;89.10
48836;DHT22;62581;47.342;7.908;2023-05-29T10:10:37;23.10;90.10
48836;DHT22;62581;47.342;7.908;2023-05-29T10:13:11;23.10;88.50
48836;DHT22;62581;47.342;7.908;2023-05-29T10:16:14;23.20;90.00
48836;DHT22;62581;47.342;7.908;2023-05-29T10:18:57;23.30;87.20
48836;DHT22;62581;47.342;7.908;2023-05-29T10:21:45;23.40;87.80
48836;DHT22;62581;47.342;7.908;2023-05-29T10:24:14;23.40;86.50
48836;DHT22;62581;47.342;7.908;2023-05-29T10:26:52;23.40;86.30
48836;DHT22;62581;47.342;7.908;2023-05-29T10:29:31;23.40;87.40
48836;DHT22;62581;47.342;7.908;2023-05-29T10:32:16;23.60;86.30
48836;DHT22;62581;47.342;7.908;2023-05-29T10:35:05;23.70;86.50
48836;DHT22;62581;47.342;7.908;2023-05-29T10:38:15;23.70;86.50
48836;DHT22;62581;47.342;7.908;2023-05-29T10:40:44;23.80;86.20
48836;DHT22;62581;47.342;7.908;2023-05-29T10:43:53;23.80;86.70
48836;DHT22;62581;47.342;7.908;2023-05-29T10:50:06;23.80;86.20
48836;DHT22;62581;47.342;7.908;2023-05-29T10:52:55;23.90;85.50
48836;DHT22;62581;47.342;7.908;2023-05-29T10:55:33;24.10;84.50
48836;DHT22;62581;47.342;7.908;2023-05-29T10:58:13;24.10;84.80
48836;DHT22;62581;47.342;7.908;2023-05-29T11:00:43;24.20;84.50
48836;DHT22;62581;47.342;7.908;2023-05-29T11:03:14;24.20;85.00
48836;DHT22;62581;47.342;7.908;2023-05-29T11:06:19;24.30;84.50
48836;DHT22;62581;47.342;7.908;2023-05-29T11:09:05;24.30;86.30
48836;DHT22;62581;47.342;7.908;2023-05-29T11:12:13;24.40;86.10
48836;DHT22;62581;47.342;7.908;2023-05-29T11:14:54;24.50;82.80
48836;DHT22;62581;47.342;7.908;2023-05-29T11:17:45;24.50;83.30
48836;DHT22;62581;47.342;7.908;2023-05-29T11:20:33;24.60;83.20
48836;DHT22;62581;47.342;7.908;2023-05-29T11:23:05;24.80;82.10
48836;DHT22;62581;47.342;7.908;2023-05-29T11:25:45;24.90;82.40
48836;DHT22;62581;47.342;7.908;2023-05-29T11:28:31;24.90;80.20
48836;DHT22;62581;47.342;7.908;2023-05-29T11:31:08;24.90;80.40
48836;DHT22;62581;47.342;7.908;2023-05-29T11:33:47;24.90;81.30
48836;DHT22;62581;47.342;7.908;2023-05-29T11:36:17;25.00;81.70
48836;DHT22;62581;47.342;7.908;2023-05-29T11:39:00;25.10;77.80
48836;DHT22;62581;47.342;7.908;2023-05-29T11:42:05;25.10;79.20
48836;DHT22;62581;47.342;7.908;2023-05-29T11:44:49;25.20;79.50
48836;DHT22;62581;47.342;7.908;2023-05-29T11:47:26;25.30;77.60
48836;DHT22;62581;47.342;7.908;2023-05-29T11:50:02;25.30;78.70
48836;DHT22;62581;47.342;7.908;2023-05-29T11:52:55;25.40;77.70
48836;DHT22;62581;47.342;7.908;2023-05-29T11:56:09;25.40;75.70
48836;DHT22;62581;47.342;7.908;2023-05-29T11:58:55;25.40;76.90
48836;DHT22;62581;47.342;7.908;2023-05-29T12:01:23;25.30;77.30
48836;DHT22;62581;47.342;7.908;2023-05-29T12:03:57;25.40;77.10
48836;DHT22;62581;47.342;7.908;2023-05-29T12:06:48;25.50;75.20
48836;DHT22;62581;47.342;7.908;2023-05-29T12:09:25;25.60;74.00
48836;DHT22;62581;47.342;7.908;2023-05-29T12:12:03;25.60;75.20
48836;DHT22;62581;47.342;7.908;2023-05-29T12:14:43;25.60;75.50
48836;DHT22;62581;47.342;7.908;2023-05-29T12:17:12;25.60;75.90
48836;DHT22;62581;47.342;7.908;2023-05-29T12:20:01;25.70;73.80
48836;DHT22;62581;47.342;7.908;2023-05-29T12:22:48;25.90;75.50
48836;DHT22;62581;47.342;7.908;2023-05-29T12:25:24;26.10;74.80
48836;DHT22;62581;47.342;7.908;2023-05-29T12:28:01;26.10;75.20
48836;DHT22;62581;47.342;7.908;2023-05-29T12:31:19;26.20;74.30
48836;DHT22;62581;47.342;7.908;2023-05-29T12:37:08;26.40;73.00
48836;DHT22;62581;47.342;7.908;2023-05-29T12:40:14;26.50;72.70
48836;DHT22;62581;47.342;7.908;2023-05-29T12:42:46;27.00;72.50
48836;DHT22;62581;47.342;7.908;2023-05-29T12:45:53;28.00;71.60
48836;DHT22;62581;47.342;7.908;2023-05-29T12:48:35;29.50;69.10
48836;DHT22;62581;47.342;7.908;2023-05-29T12:51:22;30.90;65.00
48836;DHT22;62581;47.342;7.908;2023-05-29T12:54:00;32.30;62.70
48836;DHT22;62581;47.342;7.908;2023-05-29T12:56:27;33.30;60.30
48836;DHT22;62581;47.342;7.908;2023-05-29T12:58:56;34.30;58.80
48836;DHT22;62581;47.342;7.908;2023-05-29T13:01:33;35.10;55.70
48836;DHT22;62581;47.342;7.908;2023-05-29T13:04:17;35.80;53.40
48836;DHT22;62581;47.342;7.908;2023-05-29T13:07:02;36.60;53.00
48836;DHT22;62581;47.342;7.908;2023-05-29T13:09:37;36.70;52.30
48836;DHT22;62581;47.342;7.908;2023-05-29T13:12:08;37.40;50.40
48836;DHT22;62581;47.342;7.908;2023-05-29T13:14:35;38.00;49.70
48836;DHT22;62581;47.342;7.908;2023-05-29T13:17:19;38.30;48.30
48836;DHT22;62581;47.342;7.908;2023-05-29T13:20:09;38.60;48.30
48836;DHT22;62581;47.342;7.908;2023-05-29T13:22:57;38.80;47.90
48836;DHT22;62581;47.342;7.908;2023-05-29T13:25:47;39.40;46.30
48836;DHT22;62581;47.342;7.908;2023-05-29T13:28:15;39.30;46.20
48836;DHT22;62581;47.342;7.908;2023-05-29T13:31:00;39.10;45.80
48836;DHT22;62581;47.342;7.908;2023-05-29T13:33:53;39.50;45.40
48836;DHT22;62581;47.342;7.908;2023-05-29T13:36:35;39.80;45.30
48836;DHT22;62581;47.342;7.908;2023-05-29T13:39:05;40.30;45.20
48836;DHT22;62581;47.342;7.908;2023-05-29T13:41:53;41.10;44.90
48836;DHT22;62581;47.342;7.908;2023-05-29T13:44:29;42.30;42.80
48836;DHT22;62581;47.342;7.908;2023-05-29T13:47:07;43.40;42.20
48836;DHT22;62581;47.342;7.908;2023-05-29T13:49:48;44.30;40.30
48836;DHT22;62581;47.342;7.908;2023-05-29T13:52:19;44.70;39.90
48836;DHT22;62581;47.342;7.908;2023-05-29T13:54:48;44.80;39.10
48836;DHT22;62581;47.342;7.908;2023-05-29T13:57:26;45.30;38.60
48836;DHT22;62581;47.342;7.908;2023-05-29T14:00:09;45.20;38.40
48836;DHT22;62581;47.342;7.908;2023-05-29T14:02:36;45.10;38.20
48836;DHT22;62581;47.342;7.908;2023-05-29T14:05:13;46.00;38.10
48836;DHT22;62581;47.342;7.908;2023-05-29T14:08:09;46.20;38.40
48836;DHT22;62581;47.342;7.908;2023-05-29T14:10:39;45.90;37.90
48836;DHT22;62581;47.342;7.908;2023-05-29T14:13:27;46.10;37.70
48836;DHT22;62581;47.342;7.908;2023-05-29T14:16:59;46.30;37.40
48836;DHT22;62581;47.342;7.908;2023-05-29T14:18:46;46.20;37.50
48836;DHT22;62581;47.342;7.908;2023-05-29T14:21:17;45.80;37.30
48836;DHT22;62581;47.342;7.908;2023-05-29T14:24:22;45.40;37.50
48836;DHT22;62581;47.342;7.908;2023-05-29T14:27:04;45.40;36.70
48836;DHT22;62581;47.342;7.908;2023-05-29T14:29:42;45.60;37.70
48836;DHT22;62581;47.342;7.908;2023-05-29T14:32:32;46.00;37.50
48836;DHT22;62581;47.342;7.908;2023-05-29T14:35:01;46.70;37.30
48836;DHT22;62581;47.342;7.908;2023-05-29T14:37:35;46.90;37.30
48836;DHT22;62581;47.342;7.908;2023-05-29T14:40:09;46.80;37.10
48836;DHT22;62581;47.342;7.908;2023-05-29T14:42:45;47.30;36.80
48836;DHT22;62581;47.342;7.908;2023-05-29T14:45:28;47.20;36.10
48836;DHT22;62581;47.342;7.908;2023-05-29T14:47:55;46.60;35.50
48836;DHT22;62581;47.342;7.908;2023-05-29T14:50:46;46.00;35.90
48836;DHT22;62581;47.342;7.908;2023-05-29T14:53:26;46.10;35.20
48836;DHT22;62581;47.342;7.908;2023-05-29T14:56:04;46.80;35.40
48836;DHT22;62581;47.342;7.908;2023-05-29T14:58:34;47.30;36.40
48836;DHT22;62581;47.342;7.908;2023-05-29T15:04:15;47.30;36.30
48836;DHT22;62581;47.342;7.908;2023-05-29T15:06:44;47.00;36.20
48836;DHT22;62581;47.342;7.908;2023-05-29T15:09:11;47.30;35.40
48836;DHT22;62581;47.342;7.908;2023-05-29T15:11:59;47.40;35.40
48836;DHT22;62581;47.342;7.908;2023-05-29T15:14:47;47.30;35.20
48836;DHT22;62581;47.342;7.908;2023-05-29T15:17:29;47.00;36.00
48836;DHT22;62581;47.342;7.908;2023-05-29T15:20:39;46.60;35.50
48836;DHT22;62581;47.342;7.908;2023-05-29T15:23:39;46.40;36.30
48836;DHT22;62581;47.342;7.908;2023-05-29T15:26:09;45.90;36.30
48836;DHT22;62581;47.342;7.908;2023-05-29T15:28:36;46.60;35.70
48836;DHT22;62581;47.342;7.908;2023-05-29T15:31:13;46.30;35.20
48836;DHT22;62581;47.342;7.908;2023-05-29T15:33:43;46.50;36.10
48836;DHT22;62581;47.342;7.908;2023-05-29T15:36:11;46.10;35.60
48836;DHT22;62581;47.342;7.908;2023-05-29T15:38:52;45.90;35.70
48836;DHT22;62581;47.342;7.908;2023-05-29T15:47:15;45.20;35.20
48836;DHT22;62581;47.342;7.908;2023-05-29T15:49:52;44.70;35.40
48836;DHT22;62581;47.342;7.908;2023-05-29T15:52:35;44.40;36.10
48836;DHT22;62581;47.342;7.908;2023-05-29T15:55:25;44.60;35.80
48836;DHT22;62581;47.342;7.908;2023-05-29T15:57:55;44.20;35.90
48836;DHT22;62581;47.342;7.908;2023-05-29T16:00:25;43.90;35.30
48836;DHT22;62581;47.342;7.908;2023-05-29T16:03:54;44.20;35.50
48836;DHT22;62581;47.342;7.908;2023-05-29T16:06:45;44.20;35.50
48836;DHT22;62581;47.342;7.908;2023-05-29T16:09:13;44.20;35.30
48836;DHT22;62581;47.342;7.908;2023-05-29T16:11:51;44.10;35.50
48836;DHT22;62581;47.342;7.908;2023-05-29T16:14:32;44.50;35.70
48836;DHT22;62581;47.342;7.908;2023-05-29T16:20:26;44.80;35.80
48836;DHT22;62581;47.342;7.908;2023-05-29T16:22:58;44.50;35.90
48836;DHT22;62581;47.342;7.908;2023-05-29T16:25:36;44.50;36.20
48836;DHT22;62581;47.342;7.908;2023-05-29T16:28:26;44.40;35.90
48836;DHT22;62581;47.342;7.908;2023-05-29T16:31:18;43.60;36.90
48836;DHT22;62581;47.342;7.908;2023-05-29T16:36:31;43.40;37.50
48836;DHT22;62581;47.342;7.908;2023-05-29T16:39:12;43.40;37.00
48836;DHT22;62581;47.342;7.908;2023-05-29T16:41:42;43.40;36.80
48836;DHT22;62581;47.342;7.908;2023-05-29T16:44:31;43.50;37.20
48836;DHT22;62581;47.342;7.908;2023-05-29T16:47:08;43.60;36.90
48836;DHT22;62581;47.342;7.908;2023-05-29T16:50:25;43.60;36.60